Time;durP1;ratioP1;P1;durP2;ratioP2;P2;SDS_P1;SDS_P2;PMS_P1;PMS_P2;Temp;Humidity;BMP_temperature;BMP_pressure;BME280_temperature;BME280_humidity;BME280_pressure;Samples;Min_cycle;Max_cycle;Signal;HPM_P1;HPM_P2
2023/10/08 00:01:41;;;;;;;6.53;3.20;;;;;;;13.92;73.29;98962.44;5069843;28;20233;-81
2023/10/08 00:04:11;;;;;;;4.63;3.00;;;;;;;13.92;73.74;98957.13;5053422;28;20204;-81
2023/10/08 00:06:38;;;;;;;5.67;3.03;;;;;;;13.92;74.38;98960.66;5052786;28;20231;-81
2023/10/08 00:09:08;;;;;;;4.60;2.50;;;;;;;13.91;74.72;98958.97;5053211;28;20211;-81
2023/10/08 00:11:36;;;;;;;4.73;2.47;;;;;;;13.91;75.17;98963.41;5051723;28;20231;-82
2023/10/08 00:14:05;;;;;;;5.40;2.87;;;;;;;13.96;74.52;98950.66;5052470;28;20243;-82
2023/10/08 00:16:33;;;;;;;6.33;3.30;;;;;;;13.95;76.15;98960.47;5052779;28;20584;-81
2023/10/08 00:19:07;;;;;;;5.40;3.00;;;;;;;13.97;76.16;98957.66;5052832;28;20635;-82
2023/10/08 00:21:37;;;;;;;3.47;2.70;;;;;;;13.95;76.39;98949.81;5052476;28;20238;-82
2023/10/08 00:24:06;;;;;;;5.47;3.27;;;;;;;13.92;75.65;98943.84;5052705;28;20292;-81
2023/10/08 00:26:34;;;;;;;5.87;3.10;;;;;;;13.91;74.62;98936.84;5052164;28;20239;-79
2023/10/08 00:29:06;;;;;;;5.03;3.27;;;;;;;13.93;74.09;98934.94;5052448;28;20206;-82
2023/10/08 00:31:37;;;;;;;5.33;2.97;;;;;;;13.90;74.10;98929.81;5053420;28;20300;-81
2023/10/08 00:34:05;;;;;;;5.27;3.10;;;;;;;13.90;74.84;98932.47;5056065;28;20212;-81
2023/10/08 00:36:33;;;;;;;5.67;3.43;;;;;;;13.90;74.80;98938.66;5055756;28;20291;-82
2023/10/08 00:39:08;;;;;;;6.80;3.40;;;;;;;13.89;74.83;98934.31;5056132;28;20217;-82
2023/10/08 00:41:35;;;;;;;4.17;2.67;;;;;;;13.88;75.64;98937.06;5055390;28;20702;-82
2023/10/08 00:44:05;;;;;;;5.00;3.03;;;;;;;13.87;75.82;98935.38;5055307;28;20211;-82
2023/10/08 00:46:35;;;;;;;5.43;3.40;;;;;;;13.85;75.75;98922.19;5056016;28;20218;-82
2023/10/08 00:49:23;;;;;;;7.30;3.80;;;;;;;13.78;75.63;98923.56;5056177;28;20216;-79
2023/10/08 00:52:00;;;;;;;5.77;3.30;;;;;;;13.83;75.41;98921.44;5055182;28;20227;-82
2023/10/08 00:54:32;;;;;;;5.30;3.07;;;;;;;13.84;75.29;98919.63;5056053;28;20691;-82
2023/10/08 00:57:04;;;;;;;6.90;3.07;;;;;;;13.84;75.96;98920.47;5055808;28;20226;-82
2023/10/08 00:59:33;;;;;;;5.17;3.23;;;;;;;13.81;76.55;98935.78;5054698;28;20214;-82
2023/10/08 01:02:05;;;;;;;4.73;3.23;;;;;;;13.81;76.52;98927.81;5054902;28;20348;-82
2023/10/08 01:04:34;;;;;;;6.27;2.90;;;;;;;13.77;74.99;98916.56;5055762;28;20204;-81
2023/10/08 01:07:10;;;;;;;5.47;3.13;;;;;;;13.72;76.29;98921.34;5055102;28;20266;-82
2023/10/08 01:09:39;;;;;;;5.53;3.43;;;;;;;13.67;77.70;98927.91;5055304;28;20200;-82
2023/10/08 01:12:15;;;;;;;4.43;3.00;;;;;;;13.63;76.94;98921.97;5054371;28;20650;-82
2023/10/08 01:14:43;;;;;;;5.17;2.50;;;;;;;13.57;75.96;98929.50;5055763;28;20598;-82
2023/10/08 01:17:12;;;;;;;4.77;2.80;;;;;;;13.50;75.88;98920.28;5055162;28;20258;-82
2023/10/08 01:19:42;;;;;;;4.87;2.90;;;;;;;13.42;75.44;98918.13;5055211;28;20207;-79
2023/10/08 01:22:16;;;;;;;5.07;3.37;;;;;;;13.39;74.24;98899.72;5053950;28;20262;-82
2023/10/08 01:24:43;;;;;;;5.37;2.97;;;;;;;13.39;73.18;98901.56;5055106;28;20206;-82
2023/10/08 01:27:11;;;;;;;4.73;3.00;;;;;;;13.38;72.77;98902.53;5054911;28;20237;-82
2023/10/08 01:29:38;;;;;;;5.93;3.20;;;;;;;13.39;73.03;98914.84;5054965;28;20242;-82
2023/10/08 01:32:09;;;;;;;5.53;3.00;;;;;;;13.34;76.25;98930.22;5054341;28;20238;-82
2023/10/08 01:34:36;;;;;;;5.57;3.07;;;;;;;13.36;77.10;98933.63;5054873;28;20219;-82
2023/10/08 01:37:08;;;;;;;7.30;3.30;;;;;;;13.34;77.85;98930.22;5054548;28;20211;-82
2023/10/08 01:39:37;;;;;;;5.57;3.23;;;;;;;13.28;78.14;98941.25;5054525;28;20215;-82
2023/10/08 01:42:05;;;;;;;4.83;3.30;;;;;;;13.21;79.41;98938.16;5053428;28;20235;-82
2023/10/08 01:44:33;;;;;;;6.07;2.77;;;;;;;13.14;80.59;98939.50;5054547;28;20230;-82
2023/10/08 01:47:01;;;;;;;4.90;3.10;;;;;;;13.07;79.81;98929.44;5054361;28;20317;-81
2023/10/08 01:49:32;;;;;;;5.87;3.13;;;;;;;12.97;81.77;98930.97;5054257;28;20207;-82
2023/10/08 01:52:05;;;;;;;5.80;3.30;;;;;;;12.92;82.82;98933.91;5052965;28;20231;-81
2023/10/08 01:54:35;;;;;;;6.43;3.73;;;;;;;12.92;82.75;98933.06;5053517;28;20604;-81
2023/10/08 01:57:03;;;;;;;4.93;3.10;;;;;;;12.91;82.70;98931.34;5053344;28;20472;-81
2023/10/08 01:59:32;;;;;;;8.37;3.50;;;;;;;12.87;82.21;98938.66;5053221;28;20214;-81
2023/10/08 02:01:59;;;;;;;5.63;3.43;;;;;;;12.85;82.32;98929.09;5052792;28;20242;-82
2023/10/08 02:04:25;;;;;;;3.77;2.50;;;;;;;12.78;82.40;98933.13;5053237;28;20225;-82
2023/10/08 02:06:52;;;;;;;4.73;2.70;;;;;;;12.70;82.54;98940.69;5053215;28;20228;-82
2023/10/08 02:09:25;;;;;;;5.43;3.20;;;;;;;12.65;83.92;98942.81;5053027;28;20272;-82
2023/10/08 02:11:53;;;;;;;6.97;3.57;;;;;;;12.60;85.10;98942.25;5052645;28;20233;-82
2023/10/08 02:14:22;;;;;;;4.63;2.87;;;;;;;12.53;85.78;98952.41;5052996;28;20213;-81
2023/10/08 02:16:49;;;;;;;6.27;3.60;;;;;;;12.48;86.35;98951.84;5053234;28;20213;-80
2023/10/08 02:19:18;;;;;;;5.53;3.00;;;;;;;12.49;86.22;98956.22;5053113;28;20211;-80
2023/10/08 02:21:46;;;;;;;5.60;2.90;;;;;;;12.46;86.80;98939.66;5052607;28;20478;-80
2023/10/08 02:24:13;;;;;;;4.47;3.00;;;;;;;12.48;85.50;98943.06;5053319;28;20270;-82
2023/10/08 02:26:42;;;;;;;5.13;3.10;;;;;;;12.44;86.07;98944.19;5052936;28;20303;-80
2023/10/08 02:29:11;;;;;;;6.20;3.00;;;;;;;12.44;85.88;98946.84;5052956;28;20208;-80
2023/10/08 02:31:40;;;;;;;5.93;3.37;;;;;;;12.37;87.02;98956.13;5052406;28;20284;-80
2023/10/08 02:34:08;;;;;;;5.13;3.13;;;;;;;12.34;87.71;98951.03;5052687;28;20207;-80
2023/10/08 02:36:37;;;;;;;5.13;3.03;;;;;;;12.31;87.53;98956.53;5052732;28;20208;-80
2023/10/08 02:39:07;;;;;;;5.17;3.07;;;;;;;12.27;88.09;98955.88;5053102;28;20226;-80
2023/10/08 02:41:33;;;;;;;4.87;3.00;;;;;;;12.25;88.69;98957.78;5052208;28;20284;-82
2023/10/08 02:44:00;;;;;;;5.23;3.17;;;;;;;12.21;89.34;98960.69;5052506;28;20302;-83
2023/10/08 02:46:29;;;;;;;6.37;3.80;;;;;;;12.15;89.84;98951.34;5053399;28;20277;-80
2023/10/08 02:48:57;;;;;;;6.10;3.37;;;;;;;12.14;89.91;98959.38;5053445;28;20304;-80
2023/10/08 02:51:24;;;;;;;6.27;3.20;;;;;;;12.08;90.17;98959.75;5052948;28;20235;-80
2023/10/08 02:53:51;;;;;;;6.60;3.47;;;;;;;12.06;89.85;98951.06;5052523;28;20213;-80
2023/10/08 02:56:18;;;;;;;5.07;3.10;;;;;;;12.04;90.06;98953.78;5052946;28;20665;-80
2023/10/08 02:58:46;;;;;;;4.93;2.77;;;;;;;12.04;89.94;98951.16;5052724;28;20948;-80
2023/10/08 03:01:13;;;;;;;4.93;3.20;;;;;;;12.08;89.06;98949.16;5052748;28;20231;-80
2023/10/08 03:03:41;;;;;;;6.73;3.50;;;;;;;12.08;88.42;98943.84;5052558;28;20251;-80
2023/10/08 03:06:11;;;;;;;8.67;5.30;;;;;;;12.10;86.98;98934.03;5053006;28;20243;-80
2023/10/08 03:08:40;;;;;;;8.20;4.03;;;;;;;12.14;86.98;98927.56;5053546;28;20224;-80
2023/10/08 03:11:16;;;;;;;6.90;4.17;;;;;;;12.19;85.85;98920.19;5052805;28;20290;-80
2023/10/08 03:13:46;;;;;;;5.73;3.50;;;;;;;12.20;86.23;98922.75;5053612;28;20214;-80
2023/10/08 03:16:13;;;;;;;5.47;3.47;;;;;;;12.16;86.99;98920.41;5053375;28;20216;-80
2023/10/08 03:18:42;;;;;;;5.27;2.77;;;;;;;12.19;87.52;98930.78;5053199;28;20215;-80
2023/10/08 03:21:20;;;;;;;6.20;3.43;;;;;;;12.19;87.21;98931.66;5052819;28;20320;-80
2023/10/08 03:23:47;;;;;;;9.33;3.87;;;;;;;12.17;88.01;98936.19;5053140;28;20674;-80
2023/10/08 03:26:32;;;;;;;7.03;3.13;;;;;;;12.12;88.42;98937.44;5053190;28;20241;-80
2023/10/08 03:29:00;;;;;;;5.60;2.90;;;;;;;12.07;89.48;98947.47;5053210;28;20321;-80
2023/10/08 03:31:44;;;;;;;4.93;3.23;;;;;;;12.03;90.32;98940.63;5052658;28;20306;-83
2023/10/08 03:34:12;;;;;;;6.20;3.17;;;;;;;12.00;91.53;98957.59;5053212;28;20194;-81
2023/10/08 03:36:44;;;;;;;4.90;2.97;;;;;;;11.98;91.95;98950.69;5052976;28;20207;-81
2023/10/08 03:39:13;;;;;;;5.73;3.13;;;;;;;11.96;92.55;98955.22;5053297;28;20359;-81
2023/10/08 03:41:40;;;;;;;5.20;2.90;;;;;;;11.94;92.79;98957.97;5052551;28;20227;-81
2023/10/08 03:44:12;;;;;;;5.40;3.07;;;;;;;11.96;92.64;98963.16;5052882;28;20213;-81
2023/10/08 03:46:42;;;;;;;6.90;3.20;;;;;;;11.95;93.46;98964.09;5052752;28;20541;-81
2023/10/08 03:49:15;;;;;;;7.00;3.47;;;;;;;11.97;93.52;98968.38;5053035;28;20779;-81
2023/10/08 03:51:43;;;;;;;6.00;3.03;;;;;;;11.94;93.34;98976.53;5052540;28;20339;-81
2023/10/08 03:54:17;;;;;;;8.10;3.20;;;;;;;11.82;93.90;98968.47;5052685;28;20297;-81
2023/10/08 03:56:46;;;;;;;5.07;3.07;;;;;;;11.78;94.07;98978.38;5052837;28;20291;-81
2023/10/08 03:59:14;;;;;;;5.97;3.37;;;;;;;11.62;93.95;98966.19;5052690;28;20686;-81
2023/10/08 04:01:41;;;;;;;6.10;3.27;;;;;;;11.52;95.06;98970.28;5052138;28;20785;-81
2023/10/08 04:04:12;;;;;;;8.33;4.03;;;;;;;11.38;96.68;98967.59;5053135;28;20218;-81
2023/10/08 04:06:39;;;;;;;4.70;3.20;;;;;;;11.33;98.60;98969.66;5054913;28;20230;-81
2023/10/08 04:09:17;;;;;;;6.50;3.10;;;;;;;11.35;99.60;98970.41;5056795;28;20278;-80
2023/10/08 04:11:53;;;;;;;6.47;3.50;;;;;;;11.32;100.00;98968.78;5055787;28;20650;-81
2023/10/08 04:14:21;;;;;;;6.37;3.27;;;;;;;11.33;100.00;98964.38;5056524;28;20207;-81
2023/10/08 04:16:51;;;;;;;5.90;3.57;;;;;;;11.34;99.81;98956.34;5055925;28;20215;-81
2023/10/08 04:19:18;;;;;;;5.40;3.50;;;;;;;11.34;99.77;98951.06;5056456;28;20215;-81
2023/10/08 04:21:45;;;;;;;6.50;3.57;;;;;;;11.41;99.68;98943.59;5055347;28;20231;-80
2023/10/08 04:24:14;;;;;;;5.37;3.20;;;;;;;11.53;99.16;98937.56;5056387;28;20204;-81
2023/10/08 04:26:42;;;;;;;6.50;3.53;;;;;;;11.59;99.14;98934.56;5056312;28;20276;-81
2023/10/08 04:29:09;;;;;;;6.00;3.30;;;;;;;11.57;98.75;98931.13;5056370;28;20212;-81
2023/10/08 04:31:38;;;;;;;5.83;3.13;;;;;;;11.59;98.78;98930.13;5055252;28;20239;-81
2023/10/08 04:34:09;;;;;;;5.60;3.20;;;;;;;11.60;98.25;98936.28;5069135;28;20205;-80
2023/10/08 04:36:38;;;;;;;6.70;3.70;;;;;;;11.57;98.85;98941.72;5075448;28;20223;-81
2023/10/08 04:39:13;;;;;;;5.13;3.37;;;;;;;11.53;98.77;98941.06;5075800;28;20211;-81
2023/10/08 04:41:42;;;;;;;6.17;3.30;;;;;;;11.49;99.58;98950.13;5073771;28;20248;-81
2023/10/08 04:44:13;;;;;;;5.97;3.80;;;;;;;11.47;99.61;98951.16;5073291;28;20298;-81
2023/10/08 04:46:47;;;;;;;4.83;3.30;;;;;;;11.41;99.15;98956.81;5073409;28;20232;-81
2023/10/08 04:49:26;;;;;;;4.93;3.13;;;;;;;11.36;100.00;98958.88;5071491;28;20212;-80
2023/10/08 04:51:56;;;;;;;8.27;3.20;;;;;;;11.29;100.00;98955.75;5070786;28;20261;-80
2023/10/08 04:54:24;;;;;;;6.07;2.90;;;;;;;11.26;100.00;98955.09;5063434;28;20217;-81
2023/10/08 04:56:53;;;;;;;6.60;3.43;;;;;;;11.24;100.00;98943.72;5055796;28;20213;-80
2023/10/08 04:59:21;;;;;;;6.70;3.47;;;;;;;11.28;100.00;98946.13;5055287;28;20603;-81
2023/10/08 05:01:48;;;;;;;5.83;3.27;;;;;;;11.31;100.00;98942.44;5054407;28;20699;-80
2023/10/08 05:04:26;;;;;;;7.03;3.20;;;;;;;11.35;100.00;98949.25;5055508;28;20212;-81
2023/10/08 05:07:17;;;;;;;4.40;3.00;;;;;;;11.40;100.00;98945.41;5054591;28;20726;-80
2023/10/08 05:09:51;;;;;;;5.37;3.20;;;;;;;11.40;100.00;98944.53;5055091;28;20203;-80
2023/10/08 05:12:37;;;;;;;5.57;3.30;;;;;;;11.42;100.00;98950.56;5054563;28;20320;-80
2023/10/08 05:15:33;;;;;;;8.50;3.73;;;;;;;11.39;100.00;98948.13;5054538;28;20211;-80
2023/10/08 05:18:13;;;;;;;7.57;3.63;;;;;;;11.37;100.00;98955.31;5054683;28;20204;-80
2023/10/08 05:20:59;;;;;;;7.10;3.80;;;;;;;11.37;100.00;98965.91;5054713;28;20215;-81
2023/10/08 05:26:20;;;;;;;5.80;3.30;;;;;;;11.27;100.00;98960.31;5053781;28;20620;-80
2023/10/08 05:29:00;;;;;;;5.87;3.40;;;;;;;11.18;100.00;98974.06;5055298;28;20230;-80
2023/10/08 05:31:46;;;;;;;6.33;3.87;;;;;;;11.11;100.00;98963.91;5054317;28;20666;-81
2023/10/08 05:34:17;;;;;;;5.00;3.20;;;;;;;11.09;100.00;98965.81;5054828;28;20207;-81
2023/10/08 05:37:11;;;;;;;5.53;3.20;;;;;;;11.07;100.00;98973.81;5055263;28;20204;-80
2023/10/08 05:39:40;;;;;;;6.77;3.63;;;;;;;11.01;100.00;98976.00;5055079;28;20584;-80
2023/10/08 05:42:16;;;;;;;5.40;3.30;;;;;;;11.02;100.00;98978.53;5054114;28;20235;-80
2023/10/08 05:44:46;;;;;;;5.53;3.53;;;;;;;10.86;100.00;98983.00;5054281;28;20260;-81
2023/10/08 05:47:37;;;;;;;5.57;3.70;;;;;;;10.87;100.00;98992.63;5054238;28;20265;-80
2023/10/08 05:53:01;;;;;;;7.67;4.00;;;;;;;10.92;100.00;98992.38;5019678;28;20243;-81
2023/10/08 05:55:34;;;;;;;4.83;3.67;;;;;;;10.83;100.00;98990.25;5054310;28;20240;-81
2023/10/08 05:58:13;;;;;;;5.93;2.80;;;;;;;10.83;100.00;98998.19;5054564;28;20294;-81
2023/10/08 06:01:05;;;;;;;4.63;3.27;;;;;;;10.89;100.00;99000.50;5054172;28;20219;-81
2023/10/08 06:03:36;;;;;;;6.23;3.27;;;;;;;10.99;100.00;99001.66;5053898;28;20214;-81
2023/10/08 06:06:22;;;;;;;6.07;3.27;;;;;;;11.06;100.00;98987.16;5054817;28;20209;-81
2023/10/08 06:08:52;;;;;;;4.83;3.20;;;;;;;11.12;100.00;98992.94;5054732;28;20212;-81
2023/10/08 06:11:36;;;;;;;4.60;2.87;;;;;;;11.25;100.00;98982.50;5053884;28;20286;-81
2023/10/08 06:14:13;;;;;;;6.10;3.07;;;;;;;11.36;100.00;98975.63;5053794;28;20279;-81
2023/10/08 06:16:44;;;;;;;9.30;3.50;;;;;;;11.45;100.00;98985.69;5054224;28;20199;-81
2023/10/08 06:19:12;;;;;;;6.93;3.57;;;;;;;11.53;100.00;98982.56;5053855;28;20591;-81
2023/10/08 06:21:39;;;;;;;6.17;3.33;;;;;;;11.62;100.00;98976.75;5052993;28;20296;-81
2023/10/08 06:24:09;;;;;;;6.10;3.53;;;;;;;11.64;100.00;98974.88;5054018;28;20215;-81
2023/10/08 06:26:42;;;;;;;6.10;3.20;;;;;;;11.61;100.00;98972.41;5053446;28;20243;-81
2023/10/08 06:29:18;;;;;;;6.77;2.90;;;;;;;11.67;100.00;98969.41;5052696;28;20665;-81
2023/10/08 06:31:51;;;;;;;6.70;3.17;;;;;;;11.65;100.00;98976.56;5052564;28;20704;-81
2023/10/08 06:34:21;;;;;;;5.50;3.07;;;;;;;11.62;100.00;98976.75;5053304;28;20213;-81
2023/10/08 06:36:47;;;;;;;4.40;2.83;;;;;;;11.63;100.00;98978.47;5053584;28;20569;-81
2023/10/08 06:39:18;;;;;;;5.47;3.00;;;;;;;11.63;100.00;98973.16;5053022;28;20224;-81
2023/10/08 06:41:46;;;;;;;5.53;2.70;;;;;;;11.61;100.00;98970.59;5053059;28;20234;-81
2023/10/08 06:44:14;;;;;;;6.90;3.27;;;;;;;11.67;100.00;98980.00;5053501;28;20297;-81
2023/10/08 06:46:41;;;;;;;6.73;4.10;;;;;;;11.64;100.00;98967.78;5052807;28;20670;-82
2023/10/08 06:49:12;;;;;;;6.33;4.10;;;;;;;11.68;100.00;98968.44;5052540;28;20208;-81
2023/10/08 06:51:41;;;;;;;6.27;3.93;;;;;;;11.69;100.00;98962.22;5051389;28;20649;-81
2023/10/08 06:54:10;;;;;;;5.50;3.60;;;;;;;11.71;100.00;98965.59;5052657;28;20231;-81
2023/10/08 06:56:37;;;;;;;6.40;3.50;;;;;;;11.77;100.00;98975.81;5052519;28;20673;-81
2023/10/08 06:59:05;;;;;;;7.50;4.00;;;;;;;11.93;98.93;98984.56;5053128;28;20201;-81
2023/10/08 07:01:38;;;;;;;7.27;4.10;;;;;;;12.26;96.55;98996.56;5051367;28;20581;-77
2023/10/08 07:04:11;;;;;;;7.20;3.60;;;;;;;12.24;96.21;98984.38;5052689;28;20267;-82
2023/10/08 07:06:39;;;;;;;7.20;3.50;;;;;;;12.11;97.23;98997.50;5052829;28;20209;-81
2023/10/08 07:09:13;;;;;;;7.80;3.70;;;;;;;12.09;98.14;98999.41;5052158;28;20688;-80
2023/10/08 07:11:44;;;;;;;9.73;3.87;;;;;;;12.21;98.14;99008.41;5051422;28;20350;-81
2023/10/08 07:14:11;;;;;;;6.23;3.63;;;;;;;12.20;98.72;99007.56;5052172;28;20215;-81
2023/10/08 07:16:37;;;;;;;7.43;4.17;;;;;;;12.24;98.80;99014.34;5052316;28;20686;-81
2023/10/08 07:19:15;;;;;;;6.73;4.13;;;;;;;12.34;99.70;99019.97;5051945;28;20218;-81
2023/10/08 07:21:45;;;;;;;5.27;3.43;;;;;;;12.46;100.00;99016.53;5051378;28;20231;-81
2023/10/08 07:24:17;;;;;;;7.73;3.93;;;;;;;12.65;99.60;99022.41;5052282;28;20214;-81
2023/10/08 07:26:46;;;;;;;4.87;3.13;;;;;;;12.82;98.47;99019.50;5051372;28;20214;-81
2023/10/08 07:29:16;;;;;;;5.93;3.13;;;;;;;12.97;98.14;99010.59;5051717;28;20204;-81
2023/10/08 07:31:48;;;;;;;5.60;3.43;;;;;;;13.16;96.67;99005.78;5051525;28;20245;-81
2023/10/08 07:34:25;;;;;;;5.07;3.17;;;;;;;13.30;96.07;99003.06;5052482;28;20269;-81
2023/10/08 07:36:55;;;;;;;7.57;3.77;;;;;;;13.49;95.78;99006.19;5052170;28;20297;-82
2023/10/08 07:39:33;;;;;;;6.07;3.87;;;;;;;13.59;95.22;99004.63;5053050;28;20218;-82
2023/10/08 07:42:01;;;;;;;6.47;3.93;;;;;;;13.72;94.55;98997.53;5055868;28;20227;-81
2023/10/08 07:44:29;;;;;;;7.37;3.83;;;;;;;13.83;93.59;99003.81;5056431;28;20686;-81
2023/10/08 07:46:55;;;;;;;6.37;3.20;;;;;;;13.93;92.65;98985.44;5058353;28;20274;-81
2023/10/08 07:49:23;;;;;;;6.13;3.70;;;;;;;14.01;92.26;98978.63;5059440;28;20222;-82
2023/10/08 07:51:50;;;;;;;5.23;3.40;;;;;;;14.07;91.62;98986.19;5056981;28;20698;-81
2023/10/08 07:54:20;;;;;;;5.00;3.70;;;;;;;14.20;91.22;98979.06;5059126;28;20214;-81
2023/10/08 07:56:48;;;;;;;5.30;3.47;;;;;;;14.34;90.03;98964.78;5059115;28;20222;-81
2023/10/08 07:59:16;;;;;;;5.63;3.77;;;;;;;14.43;89.53;98967.63;5058474;28;20231;-83
2023/10/08 08:01:43;;;;;;;7.20;4.38;;;;;;;14.53;89.40;98989.09;5055688;28;20914;-82
2023/10/08 08:04:12;;;;;;;6.90;4.50;;;;;;;14.57;89.20;98990.59;5059856;28;20442;-82
2023/10/08 08:06:39;;;;;;;5.13;3.50;;;;;;;14.57;89.45;98995.91;5062559;28;20212;-82
2023/10/08 08:09:09;;;;;;;7.10;4.00;;;;;;;14.67;88.23;99010.28;5063181;28;20232;-82
2023/10/08 08:11:37;;;;;;;5.50;3.93;;;;;;;14.80;88.71;99035.03;5062955;28;20235;-82
2023/10/08 08:14:07;;;;;;;7.63;3.97;;;;;;;14.78;88.38;99047.63;5064234;28;20215;-82
2023/10/08 08:16:36;;;;;;;8.67;4.10;;;;;;;14.67;88.69;99044.88;5064718;28;20211;-82
2023/10/08 08:19:03;;;;;;;8.23;4.20;;;;;;;14.59;90.01;99055.19;5063939;28;20204;-84
2023/10/08 08:21:30;;;;;;;6.00;4.22;;;;;;;14.59;88.73;99036.56;5062367;28;20427;-81
2023/10/08 08:24:04;;;;;;;6.73;4.07;;;;;;;14.62;88.93;99044.34;5058274;28;20290;-83
2023/10/08 08:26:39;;;;;;;6.57;3.70;;;;;;;14.72;86.84;99027.59;5057109;28;20213;-82
2023/10/08 08:29:08;;;;;;;8.00;4.03;;;;;;;14.88;83.50;99030.00;5056963;28;20239;-82
2023/10/08 08:31:36;;;;;;;7.37;3.63;;;;;;;15.07;85.56;99046.34;5056152;28;20277;-82
2023/10/08 08:34:08;;;;;;;6.90;4.00;;;;;;;15.25;86.45;99068.97;5057735;28;20736;-81
2023/10/08 08:36:37;;;;;;;6.10;3.57;;;;;;;15.52;80.60;99045.66;5057330;28;20230;-82
2023/10/08 08:39:04;;;;;;;6.20;3.40;;;;;;;15.63;80.54;99043.06;5056944;28;20228;-82
2023/10/08 08:41:33;;;;;;;7.70;4.07;;;;;;;15.73;80.73;99057.38;5056820;28;20228;-82
2023/10/08 08:44:00;;;;;;;5.47;3.50;;;;;;;15.92;79.94;99055.00;5057072;28;20204;-82
2023/10/08 08:46:32;;;;;;;6.27;3.57;;;;;;;16.02;79.25;99053.34;5058167;28;20216;-82
2023/10/08 08:49:03;;;;;;;5.90;3.43;;;;;;;16.16;77.30;99048.66;5057154;28;20553;-82
2023/10/08 08:51:30;;;;;;;5.93;3.00;;;;;;;16.30;76.73;99051.09;5056602;28;20336;-82
2023/10/08 08:53:59;;;;;;;4.68;3.05;;;;;;;16.43;77.48;99044.72;5057746;28;20427;-82
2023/10/08 08:56:27;;;;;;;5.23;3.10;;;;;;;16.56;78.01;99042.78;5056474;28;20225;-82
2023/10/08 08:58:54;;;;;;;7.30;3.20;;;;;;;16.75;77.85;99043.00;5055830;28;20208;-81
2023/10/08 09:01:21;;;;;;;5.40;2.80;;;;;;;16.99;78.25;99043.72;5055369;28;20239;-81
2023/10/08 09:03:50;;;;;;;5.93;3.10;;;;;;;17.21;78.16;99045.50;5055517;28;20294;-81
2023/10/08 09:06:17;;;;;;;5.50;3.23;;;;;;;17.40;77.70;99035.88;5055119;28;20212;-81
2023/10/08 09:08:45;;;;;;;5.53;3.27;;;;;;;17.63;76.08;99032.13;5054839;28;20267;-81
2023/10/08 09:11:15;;;;;;;4.77;3.20;;;;;;;17.78;73.87;99017.50;5055367;28;20315;-81
2023/10/08 09:13:42;;;;;;;4.53;3.00;;;;;;;17.97;71.00;99025.66;5055317;28;20219;-82
2023/10/08 09:16:13;;;;;;;5.77;3.40;;;;;;;18.20;69.10;99010.31;5055453;28;20240;-81
2023/10/08 09:18:39;;;;;;;5.17;2.90;;;;;;;18.39;68.27;99005.94;5054769;28;20215;-81
2023/10/08 09:21:11;;;;;;;6.20;3.60;;;;;;;18.56;67.96;99016.03;5053232;28;20462;-82
2023/10/08 09:23:45;;;;;;;4.97;3.00;;;;;;;18.79;66.76;99005.97;5054003;28;20585;-82
2023/10/08 09:26:13;;;;;;;7.40;4.10;;;;;;;19.09;67.19;99020.13;5054652;28;20685;-82
2023/10/08 09:28:40;;;;;;;5.20;3.10;;;;;;;19.07;67.29;99014.06;5054589;28;20250;-80
2023/10/08 09:31:11;;;;;;;5.43;3.50;;;;;;;19.15;67.98;99010.72;5036004;28;20228;-80
2023/10/08 09:33:38;;;;;;;5.30;3.30;;;;;;;19.29;68.17;99013.03;5036227;28;20196;-77
2023/10/08 09:36:05;;;;;;;5.77;3.23;;;;;;;19.30;68.44;99020.06;5054242;28;20208;-81
2023/10/08 09:38:34;;;;;;;3.93;2.93;;;;;;;19.46;65.77;99002.47;5054681;28;20204;-81
2023/10/08 09:41:02;;;;;;;5.53;2.40;;;;;;;19.73;61.02;98985.66;5054174;28;20228;-80
2023/10/08 09:43:29;;;;;;;5.73;2.63;;;;;;;19.95;60.61;98980.84;5054083;28;20208;-81
2023/10/08 09:46:01;;;;;;;4.00;2.30;;;;;;;20.13;59.21;98972.91;5054156;28;20215;-82
2023/10/08 09:48:31;;;;;;;4.83;2.30;;;;;;;20.15;59.54;98977.16;5054509;28;20228;-81
2023/10/08 09:50:59;;;;;;;3.37;2.30;;;;;;;20.24;59.28;98978.94;5055623;28;20231;-82
2023/10/08 09:53:39;;;;;;;4.07;2.33;;;;;;;20.40;58.44;98975.66;5057562;28;20218;-85
2023/10/08 09:56:15;;;;;;;2.93;1.90;;;;;;;20.53;58.62;98974.34;5055399;28;20717;-81
2023/10/08 09:58:43;;;;;;;3.20;2.40;;;;;;;20.62;58.18;98972.59;5055640;28;20204;-81
2023/10/08 10:01:11;;;;;;;4.50;2.80;;;;;;;20.64;57.13;98963.41;5054497;28;20715;-81
2023/10/08 10:03:39;;;;;;;4.20;2.20;;;;;;;20.64;57.90;98974.16;5054093;28;20219;-81
2023/10/08 10:06:12;;;;;;;4.67;2.87;;;;;;;20.69;57.31;98969.19;5054132;28;20291;-81
2023/10/08 10:08:40;;;;;;;3.60;2.40;;;;;;;20.67;58.03;98981.91;5054425;28;20237;-81
2023/10/08 10:11:08;;;;;;;3.53;2.47;;;;;;;20.83;57.34;98994.69;5055883;28;20236;-81
2023/10/08 10:13:39;;;;;;;3.87;2.30;;;;;;;20.77;56.33;98985.41;5054749;28;20705;-81
2023/10/08 10:16:07;;;;;;;6.53;2.70;;;;;;;20.76;56.68;98990.91;5054275;28;20261;-81
2023/10/08 10:18:34;;;;;;;3.83;2.60;;;;;;;20.85;56.56;98998.09;5054411;28;20212;-81
2023/10/08 10:21:21;;;;;;;3.97;2.40;;;;;;;20.87;56.67;99005.00;5054684;28;20238;-82
2023/10/08 10:23:50;;;;;;;4.30;2.43;;;;;;;20.91;57.70;99003.72;5055040;28;20215;-79
2023/10/08 10:26:25;;;;;;;3.70;2.30;;;;;;;20.97;56.43;98989.69;5053511;28;20215;-81
2023/10/08 10:29:25;;;;;;;3.37;2.57;;;;;;;20.98;56.22;98987.88;5053464;28;20269;-81
2023/10/08 10:31:54;;;;;;;4.17;2.30;;;;;;;21.03;56.88;98991.78;5053384;28;20319;-82
2023/10/08 10:34:22;;;;;;;3.90;2.43;;;;;;;21.08;57.22;98994.88;5053468;28;20211;-80
2023/10/08 10:36:55;;;;;;;4.93;2.87;;;;;;;21.15;56.98;98995.13;5053852;28;20214;-80
2023/10/08 10:39:27;;;;;;;5.47;2.60;;;;;;;21.27;55.76;98994.75;5053862;28;20200;-82
2023/10/08 10:41:57;;;;;;;4.17;2.63;;;;;;;21.41;54.78;98986.16;5054220;28;20243;-80
2023/10/08 10:44:24;;;;;;;3.70;2.55;;;;;;;21.36;54.12;98993.84;5054577;28;20435;-81
2023/10/08 10:46:51;;;;;;;3.60;2.20;;;;;;;21.25;55.11;98995.88;5054897;28;20208;-80
2023/10/08 10:49:22;;;;;;;3.83;2.40;;;;;;;21.05;55.70;99002.41;5054026;28;20327;-80
2023/10/08 10:51:52;;;;;;;4.10;2.40;;;;;;;20.96;56.00;98993.38;5053553;28;20227;-79
2023/10/08 10:54:23;;;;;;;4.60;3.17;;;;;;;21.04;56.31;99001.53;5052859;28;20667;-79
2023/10/08 10:57:03;;;;;;;4.47;3.10;;;;;;;21.30;55.06;98988.22;5053207;28;20243;-80
2023/10/08 10:59:36;;;;;;;3.80;2.60;;;;;;;21.51;54.96;98981.53;5053493;28;20226;-80
2023/10/08 11:02:08;;;;;;;4.07;2.73;;;;;;;21.91;53.33;98973.88;5054820;28;20230;-81
2023/10/08 11:04:47;;;;;;;4.43;2.60;;;;;;;21.94;54.08;98978.91;5053572;28;20314;-80
2023/10/08 11:07:15;;;;;;;4.90;2.90;;;;;;;21.92;53.97;98974.69;5053204;28;20214;-80
2023/10/08 11:09:44;;;;;;;4.60;2.70;;;;;;;21.85;54.85;98987.94;5053461;28;20231;-80
2023/10/08 11:12:18;;;;;;;3.77;2.67;;;;;;;21.86;53.30;98962.72;5052446;28;20305;-80
2023/10/08 11:14:47;;;;;;;4.23;2.37;;;;;;;21.92;52.94;98970.16;5052897;28;20208;-80
2023/10/08 11:17:15;;;;;;;4.40;2.50;;;;;;;22.15;52.46;98967.81;5054020;28;20698;-80
2023/10/08 11:19:45;;;;;;;3.73;2.90;;;;;;;22.25;52.07;98968.56;5055387;28;20200;-80
2023/10/08 11:22:16;;;;;;;5.00;2.73;;;;;;;22.34;52.14;98964.88;5052972;28;20232;-80
2023/10/08 11:24:47;;;;;;;5.83;2.73;;;;;;;22.43;51.72;98956.72;5053491;28;20204;-80
2023/10/08 11:27:28;;;;;;;4.20;2.60;;;;;;;22.49;53.68;98968.72;5053551;28;20702;-80
2023/10/08 11:29:57;;;;;;;4.10;2.57;;;;;;;22.48;52.21;98946.31;5053283;28;20235;-80
2023/10/08 11:32:26;;;;;;;4.13;2.63;;;;;;;22.45;53.98;98959.28;5052662;28;20224;-80
2023/10/08 11:34:55;;;;;;;4.23;2.77;;;;;;;22.42;54.93;98963.09;5053108;28;20208;-80
2023/10/08 11:37:28;;;;;;;4.20;2.73;;;;;;;22.50;55.33;98970.41;5053512;28;20207;-80
2023/10/08 11:39:58;;;;;;;5.67;2.70;;;;;;;22.50;52.53;98938.09;5053251;28;20228;-80
2023/10/08 11:42:44;;;;;;;5.17;2.53;;;;;;;22.58;51.81;98935.41;5052802;28;20228;-80
2023/10/08 11:45:24;;;;;;;6.90;3.10;;;;;;;22.77;51.23;98922.53;5053534;28;20212;-80
2023/10/08 11:47:55;;;;;;;5.70;2.70;;;;;;;22.73;51.97;98928.41;5053027;28;20208;-80
2023/10/08 11:50:30;;;;;;;4.37;2.90;;;;;;;22.67;53.98;98943.38;5053309;28;20243;-80
2023/10/08 11:53:01;;;;;;;5.07;2.60;;;;;;;22.59;54.39;98945.19;5052535;28;20665;-80
2023/10/08 11:55:28;;;;;;;4.60;2.60;;;;;;;22.60;54.86;98952.25;5053228;28;20302;-80